createdAt,value
2022-11-03T22:43:58.602Z,5.50
2022-11-03T22:44:57.289Z,5.50
2022-11-03T22:45:57.287Z,5.00
2022-11-03T22:46:57.271Z,5.20
2022-11-03T22:47:57.723Z,5.20
2022-11-03T22:48:57.337Z,5.00
2022-11-03T22:49:57.391Z,4.80
2022-11-03T22:50:57.231Z,4.90
2022-11-03T22:51:57.221Z,5.20
2022-11-03T22:52:57.216Z,4.90
2022-11-03T22:53:57.197Z,5.20
2022-11-03T22:54:57.554Z,5.30
2022-11-03T22:55:57.176Z,5.70
2022-11-03T22:56:57.172Z,5.10
2022-11-03T22:57:57.170Z,5.20
2022-11-03T22:58:57.151Z,4.90
2022-11-03T22:59:57.121Z,5.30
2022-11-03T23:00:57.510Z,5.10
2022-11-03T23:01:57.215Z,4.70
2022-11-03T23:02:57.101Z,5.60
2022-11-03T23:03:57.097Z,5.10
2022-11-03T23:04:57.081Z,4.40
2022-11-03T23:05:57.069Z,5.00
2022-11-03T23:06:57.337Z,4.80
2022-11-03T23:07:57.049Z,4.80
2022-11-03T23:08:57.040Z,5.20
2022-11-03T23:09:57.043Z,4.60
2022-11-03T23:10:57.036Z,5.00
2022-11-03T23:11:57.010Z,4.20
2022-11-03T23:12:57.212Z,4.90
2022-11-03T23:13:56.991Z,5.10
2022-11-03T23:14:56.986Z,4.70
2022-11-03T23:15:56.959Z,4.60
2022-11-03T23:16:56.969Z,4.80
2022-11-03T23:17:56.944Z,4.90
2022-11-03T23:18:57.150Z,4.80
2022-11-03T23:19:56.921Z,4.80
2022-11-03T23:20:56.916Z,4.70
2022-11-03T23:21:56.900Z,5.00
2022-11-03T23:22:56.891Z,4.70
2022-11-03T23:23:56.881Z,4.90
2022-11-03T23:24:57.023Z,5.10
2022-11-03T23:25:57.571Z,5.10
2022-11-03T23:26:56.851Z,5.50
2022-11-03T23:27:56.841Z,5.30
2022-11-03T23:28:56.839Z,5.50
2022-11-03T23:29:57.001Z,5.80
2022-11-03T23:30:56.807Z,5.80
2022-11-03T23:31:56.806Z,5.80
2022-11-03T23:32:56.941Z,5.90
2022-11-03T23:33:56.767Z,6.10
2022-11-03T23:34:56.761Z,5.40
2022-11-03T23:35:56.764Z,5.80
2022-11-03T23:36:56.740Z,5.90
2022-11-03T23:37:56.720Z,5.90
2022-11-03T23:38:56.919Z,5.90
2022-11-03T23:39:56.717Z,5.90
2022-11-03T23:40:56.689Z,6.20
2022-11-03T23:41:56.752Z,5.60
2022-11-03T23:42:56.738Z,6.00
2022-11-03T23:43:56.671Z,6.20
2022-11-03T23:44:56.822Z,5.90
2022-11-03T23:45:56.629Z,6.30
2022-11-03T23:46:56.639Z,5.90
2022-11-03T23:47:56.779Z,5.60
2022-11-03T23:48:56.631Z,6.30
2022-11-03T23:49:56.613Z,5.80
2022-11-03T23:50:56.606Z,5.40
2022-11-03T23:51:56.594Z,6.00
2022-11-03T23:52:56.586Z,6.30
2022-11-03T23:53:56.850Z,6.80
2022-11-03T23:54:56.589Z,6.40
2022-11-03T23:55:56.587Z,6.10
2022-11-03T23:56:56.556Z,5.80
2022-11-03T23:57:56.509Z,5.80
2022-11-03T23:58:56.512Z,6.60
2022-11-03T23:59:56.668Z,6.10
